Terminal Aerodrome Forecast
Issued by NWS Springfield, MO

Home | Current Version | Previous Version | Text Only | Print | Product List | Glossary On
Versions: 1 2 3 4 5 6 7 8 9 10 11 12 13 14 15 16 17 18
612
FTUS43 KSGF 211842 AAA
TAFSGF
TAF AMD
KSGF 211842Z 2119/2218 06012KT P6SM SCT025 BKN045
     FM212200 07010KT P6SM SCT050
     FM220200 06014KT P6SM BKN040
     FM220800 08014G22KT P6SM OVC035=

USA.gov is the U.S. government's official web portal to all federal, state and local government web resources and services.